createdAt,value
2019-06-28T00:01:40.414Z,100.00
2019-06-28T00:04:10.013Z,100.00
2019-06-28T00:06:39.491Z,100.00
2019-06-28T00:09:08.983Z,100.00
2019-06-28T00:11:38.467Z,100.00
2019-06-28T00:14:08.038Z,100.00
2019-06-28T00:16:37.529Z,100.00
2019-06-28T00:19:07.030Z,100.00
2019-06-28T00:21:36.504Z,100.00
2019-06-28T00:24:06.075Z,100.00
2019-06-28T00:26:35.723Z,100.00
2019-06-28T00:29:05.284Z,100.00
2019-06-28T00:31:34.758Z,100.00
2019-06-28T00:34:04.253Z,100.00
2019-06-28T00:36:33.746Z,100.00
2019-06-28T00:39:03.611Z,100.00
2019-06-28T00:41:33.101Z,100.00
2019-06-28T00:44:03.145Z,100.00
2019-06-28T00:46:32.628Z,100.00
2019-06-28T00:49:02.119Z,100.00
2019-06-28T00:51:31.676Z,100.00
2019-06-28T00:54:01.175Z,100.00
2019-06-28T00:56:30.646Z,100.00
2019-06-28T00:59:00.141Z,100.00
2019-06-28T01:01:29.608Z,100.00
2019-06-28T01:03:59.079Z,100.00
2019-06-28T01:06:28.565Z,100.00
2019-06-28T01:08:58.080Z,100.00
2019-06-28T01:11:27.563Z,100.00
2019-06-28T01:13:57.044Z,100.00
2019-06-28T01:16:26.527Z,100.00
2019-06-28T01:18:56.013Z,100.00
2019-06-28T01:21:25.508Z,100.00
2019-06-28T01:23:55.005Z,100.00
2019-06-28T01:26:24.486Z,100.00
2019-06-28T01:28:53.977Z,100.00
2019-06-28T01:31:23.456Z,100.00
2019-06-28T01:33:52.954Z,100.00
2019-06-28T01:36:22.426Z,100.00
2019-06-28T01:38:51.917Z,100.00
2019-06-28T01:41:27.218Z,100.00
2019-06-28T01:43:52.611Z,100.00
2019-06-28T01:46:22.107Z,100.00
2019-06-28T01:48:51.600Z,100.00
2019-06-28T01:51:21.090Z,100.00
2019-06-28T01:53:50.603Z,100.00
2019-06-28T01:56:20.089Z,100.00
2019-06-28T01:58:49.573Z,100.00
2019-06-28T02:01:19.053Z,100.00
2019-06-28T02:03:48.545Z,100.00
2019-06-28T02:06:18.052Z,100.00
2019-06-28T02:08:47.538Z,100.00
2019-06-28T02:11:17.109Z,100.00
2019-06-28T02:13:46.605Z,100.00
2019-06-28T02:16:16.081Z,100.00
2019-06-28T02:18:45.574Z,100.00
2019-06-28T02:21:15.063Z,100.00
2019-06-28T02:23:44.561Z,100.00
2019-06-28T02:26:14.059Z,100.00
2019-06-28T02:28:43.559Z,100.00
2019-06-28T02:31:13.085Z,100.00
2019-06-28T02:33:42.581Z,100.00
2019-06-28T02:36:12.076Z,100.00
2019-06-28T02:38:41.548Z,100.00
2019-06-28T02:41:11.044Z,100.00
2019-06-28T02:43:40.534Z,100.00
2019-06-28T02:46:10.015Z,100.00
2019-06-28T02:48:39.502Z,100.00
2019-06-28T02:51:08.985Z,100.00
2019-06-28T02:53:38.480Z,100.00
2019-06-28T02:56:07.980Z,100.00
2019-06-28T02:58:37.537Z,100.00
2019-06-28T03:01:07.034Z,100.00
2019-06-28T03:03:36.522Z,100.00
2019-06-28T03:06:06.000Z,100.00
2019-06-28T03:08:35.503Z,100.00
2019-06-28T03:11:04.984Z,100.00
2019-06-28T03:13:34.480Z,100.00
2019-06-28T03:16:03.959Z,100.00
2019-06-28T03:18:33.472Z,100.00
2019-06-28T03:21:02.940Z,100.00
2019-06-28T03:23:32.414Z,100.00
2019-06-28T03:26:01.951Z,100.00
2019-06-28T03:28:31.421Z,100.00
2019-06-28T03:31:00.912Z,100.00
2019-06-28T03:33:30.396Z,100.00
2019-06-28T03:35:59.884Z,100.00
2019-06-28T03:38:29.391Z,100.00
2019-06-28T03:40:58.873Z,100.00
2019-06-28T03:43:28.355Z,100.00
2019-06-28T03:45:57.842Z,100.00
2019-06-28T03:48:27.325Z,100.00
2019-06-28T03:50:57.599Z,100.00
2019-06-28T03:53:27.087Z,100.00
2019-06-28T03:55:56.589Z,100.00
2019-06-28T03:58:26.074Z,100.00
2019-06-28T04:00:55.563Z,100.00
2019-06-28T04:03:25.058Z,100.00
2019-06-28T04:05:54.529Z,100.00
2019-06-28T04:08:24.024Z,100.00
2019-06-28T04:10:53.502Z,100.00
2019-06-28T04:13:23.525Z,100.00
2019-06-28T04:15:53.086Z,100.00
2019-06-28T04:18:22.586Z,100.00
2019-06-28T04:20:52.081Z,100.00
2019-06-28T04:23:21.842Z,100.00
2019-06-28T04:25:51.341Z,100.00
2019-06-28T04:28:20.832Z,100.00
2019-06-28T04:30:50.385Z,100.00
2019-06-28T04:33:19.928Z,100.00
2019-06-28T04:35:49.433Z,100.00
2019-06-28T04:38:18.915Z,100.00
2019-06-28T04:40:48.417Z,100.00
2019-06-28T04:43:22.570Z,100.00
2019-06-28T04:45:49.089Z,100.00
2019-06-28T04:48:18.581Z,100.00
2019-06-28T04:50:48.073Z,100.00
2019-06-28T04:53:17.550Z,100.00
2019-06-28T04:55:47.043Z,100.00
2019-06-28T04:58:16.543Z,100.00
2019-06-28T05:00:46.193Z,100.00
2019-06-28T05:03:15.698Z,100.00
2019-06-28T05:05:45.188Z,100.00
2019-06-28T05:08:14.685Z,100.00
2019-06-28T05:10:44.181Z,100.00
2019-06-28T05:13:13.839Z,100.00
2019-06-28T05:15:43.320Z,80.32
2019-06-28T05:18:12.890Z,62.49
2019-06-28T05:20:42.373Z,79.57
2019-06-28T05:23:11.854Z,74.25
2019-06-28T05:25:41.345Z,50.89
2019-06-28T05:28:10.820Z,49.96
2019-06-28T05:30:40.328Z,50.73
2019-06-28T05:33:09.801Z,44.56
2019-06-28T05:35:39.298Z,37.86
2019-06-28T05:38:08.794Z,36.08
2019-06-28T05:40:38.287Z,34.14
2019-06-28T05:43:07.799Z,35.92
2019-06-28T05:45:37.333Z,42.28
2019-06-28T05:48:06.816Z,42.23
2019-06-28T05:50:36.310Z,41.80
2019-06-28T05:53:05.881Z,34.30
2019-06-28T05:55:35.355Z,34.57
2019-06-28T05:58:05.282Z,32.52
2019-06-28T06:00:34.745Z,30.81
2019-06-28T06:03:04.310Z,28.45
2019-06-28T06:05:33.785Z,29.84
2019-06-28T06:08:03.259Z,34.22
2019-06-28T06:10:32.749Z,31.28
2019-06-28T06:13:02.263Z,29.26
2019-06-28T06:15:31.758Z,24.18
2019-06-28T06:18:01.253Z,27.38
2019-06-28T06:20:30.742Z,29.61
2019-06-28T06:23:00.224Z,27.15
2019-06-28T06:25:29.717Z,29.96
2019-06-28T06:27:59.215Z,28.66
2019-06-28T06:30:28.709Z,30.83
2019-06-28T06:32:58.361Z,28.26
2019-06-28T06:35:27.844Z,32.19
2019-06-28T06:37:57.330Z,30.72
2019-06-28T06:40:26.887Z,27.72
2019-06-28T06:42:56.537Z,28.47
2019-06-28T06:45:26.030Z,27.27
2019-06-28T06:47:55.505Z,25.35
2019-06-28T06:50:24.987Z,25.97
2019-06-28T06:52:54.486Z,28.54
2019-06-28T06:55:23.967Z,23.90
2019-06-28T06:57:54.002Z,24.28
2019-06-28T07:00:24.030Z,23.24
2019-06-28T07:02:53.497Z,23.60
2019-06-28T07:05:23.052Z,22.32
2019-06-28T07:07:52.545Z,23.59
2019-06-28T07:10:22.365Z,22.80
2019-06-28T07:12:51.842Z,20.85
2019-06-28T07:15:21.472Z,21.72
2019-06-28T07:17:51.080Z,25.24
2019-06-28T07:20:20.898Z,24.28
2019-06-28T07:22:50.381Z,24.22
2019-06-28T07:25:20.021Z,26.38
2019-06-28T07:27:49.490Z,25.85
2019-06-28T07:30:19.114Z,24.87
2019-06-28T07:32:48.586Z,25.11
2019-06-28T07:35:18.244Z,26.03
2019-06-28T07:37:47.974Z,26.63
2019-06-28T07:40:20.023Z,25.75
2019-06-28T07:42:49.494Z,25.19
2019-06-28T07:45:19.490Z,21.37
2019-06-28T07:47:48.970Z,24.47
2019-06-28T07:50:19.391Z,27.29
2019-06-28T07:52:48.886Z,25.48
2019-06-28T07:55:18.441Z,22.82
2019-06-28T07:57:47.944Z,22.04
2019-06-28T08:00:17.976Z,22.43
2019-06-28T08:02:47.510Z,22.31
2019-06-28T08:05:17.281Z,24.02
2019-06-28T08:07:46.757Z,24.64
2019-06-28T08:10:17.200Z,24.80
2019-06-28T08:12:46.684Z,25.63
2019-06-28T08:15:20.096Z,25.34
2019-06-28T08:17:47.450Z,21.61
2019-06-28T08:20:17.764Z,20.72
2019-06-28T08:22:47.261Z,21.92
2019-06-28T08:25:17.950Z,24.32
2019-06-28T08:27:47.417Z,25.36
2019-06-28T08:30:18.887Z,26.77
2019-06-28T08:32:48.547Z,22.63
2019-06-28T08:35:18.207Z,24.18
2019-06-28T08:37:47.717Z,27.62
2019-06-28T08:40:17.689Z,30.06
2019-06-28T08:42:47.154Z,28.35
2019-06-28T08:45:16.785Z,29.33
2019-06-28T08:47:46.274Z,27.76
2019-06-28T08:50:15.833Z,22.40
2019-06-28T08:52:45.308Z,23.39
2019-06-28T08:55:15.114Z,21.95
2019-06-28T09:00:16.738Z,24.25
2019-06-28T09:02:46.220Z,25.34
2019-06-28T09:05:17.727Z,24.19
2019-06-28T09:07:47.379Z,19.10
2019-06-28T09:10:17.656Z,25.73
2019-06-28T09:12:47.173Z,22.61
2019-06-28T09:15:16.741Z,17.99
2019-06-28T09:17:46.286Z,19.00
2019-06-28T09:20:16.187Z,20.17
2019-06-28T09:22:45.685Z,20.19
2019-06-28T09:25:16.764Z,20.54
2019-06-28T09:27:46.263Z,17.68
2019-06-28T09:30:17.172Z,23.63
2019-06-28T09:32:46.641Z,29.99
2019-06-28T09:35:16.949Z,23.61
2019-06-28T09:37:46.423Z,26.38
2019-06-28T09:40:16.727Z,29.53
2019-06-28T09:42:46.202Z,30.18
2019-06-28T09:45:16.138Z,23.21
2019-06-28T09:47:45.636Z,22.45
2019-06-28T09:50:15.259Z,20.24
2019-06-28T09:52:44.755Z,27.96
2019-06-28T09:55:14.300Z,29.63
2019-06-28T09:57:43.795Z,27.33
2019-06-28T10:00:14.025Z,28.47
2019-06-28T10:02:43.511Z,30.76
2019-06-28T10:05:13.075Z,28.75
2019-06-28T10:07:42.561Z,27.74
2019-06-28T10:10:13.168Z,28.57
2019-06-28T10:12:42.664Z,28.46
2019-06-28T10:15:12.545Z,29.61
2019-06-28T10:17:42.145Z,26.36
2019-06-28T10:20:12.124Z,27.71
2019-06-28T10:22:41.619Z,26.73
2019-06-28T10:25:23.446Z,28.21
2019-06-28T10:27:42.357Z,30.09
2019-06-28T10:30:12.699Z,25.57
2019-06-28T10:32:42.171Z,23.34
2019-06-28T10:35:11.771Z,21.65
2019-06-28T10:37:41.286Z,24.69
2019-06-28T10:40:11.992Z,27.45
2019-06-28T10:42:41.481Z,25.98
2019-06-28T10:45:11.581Z,32.05
2019-06-28T10:47:41.080Z,25.98
2019-06-28T10:50:12.673Z,29.59
2019-06-28T10:52:42.170Z,25.52
2019-06-28T10:55:11.711Z,32.30
2019-06-28T10:57:41.209Z,29.78
2019-06-28T11:00:12.308Z,26.19
2019-06-28T11:02:41.786Z,29.93
2019-06-28T11:05:11.603Z,26.96
2019-06-28T11:07:41.074Z,27.23
2019-06-28T11:10:10.879Z,30.71
2019-06-28T11:12:40.374Z,23.75
2019-06-28T11:15:10.101Z,18.68
2019-06-28T11:17:39.586Z,25.46
2019-06-28T11:20:09.212Z,31.18
2019-06-28T11:22:38.705Z,26.24
2019-06-28T11:25:08.434Z,28.18
2019-06-28T11:27:37.921Z,26.22
2019-06-28T11:30:10.470Z,28.69
2019-06-28T11:32:39.954Z,27.88
2019-06-28T11:35:09.494Z,29.97
2019-06-28T11:37:38.991Z,26.86
2019-06-28T11:40:09.272Z,27.07
2019-06-28T11:42:38.826Z,27.27
2019-06-28T11:45:10.094Z,26.99
2019-06-28T11:47:39.655Z,22.38
2019-06-28T11:50:10.145Z,25.19
2019-06-28T11:52:39.701Z,24.19
2019-06-28T11:55:09.625Z,24.68
2019-06-28T11:57:39.126Z,24.30
2019-06-28T12:00:09.796Z,26.12
2019-06-28T12:02:39.290Z,21.91
2019-06-28T12:05:09.006Z,24.84
2019-06-28T12:07:38.494Z,17.17
2019-06-28T12:10:11.587Z,17.98
2019-06-28T12:12:41.048Z,21.79
2019-06-28T12:15:11.548Z,25.20
2019-06-28T12:17:41.105Z,27.55
2019-06-28T12:20:11.782Z,25.75
2019-06-28T12:22:44.972Z,28.85
2019-06-28T12:25:12.765Z,23.91
2019-06-28T12:27:42.252Z,23.99
2019-06-28T12:30:14.213Z,27.52
2019-06-28T12:32:43.954Z,30.65
2019-06-28T12:35:13.785Z,31.40
2019-06-28T12:37:43.259Z,28.43
2019-06-28T12:40:13.451Z,29.50
2019-06-28T12:42:42.961Z,31.14
2019-06-28T12:45:13.022Z,31.00
2019-06-28T12:47:48.877Z,31.70
2019-06-28T12:50:14.126Z,27.10
2019-06-28T12:52:43.608Z,32.70
2019-06-28T12:55:13.642Z,30.64
2019-06-28T12:57:43.132Z,31.16
2019-06-28T13:00:13.780Z,33.80
2019-06-28T13:02:43.250Z,25.25
2019-06-28T13:05:13.660Z,30.39
2019-06-28T13:07:43.139Z,28.45
2019-06-28T13:10:13.234Z,29.25
2019-06-28T13:12:42.800Z,31.97
2019-06-28T13:15:12.786Z,30.07
2019-06-28T13:17:42.270Z,29.53
2019-06-28T13:20:12.187Z,30.16
2019-06-28T13:22:41.754Z,31.97
2019-06-28T13:25:12.832Z,29.45
2019-06-28T13:27:42.312Z,33.15
2019-06-28T13:30:12.203Z,29.26
2019-06-28T13:32:41.699Z,26.44
2019-06-28T13:35:11.769Z,27.67
2019-06-28T13:37:41.241Z,27.06
2019-06-28T13:40:11.339Z,29.91
2019-06-28T13:42:40.803Z,31.31
2019-06-28T13:45:11.299Z,31.77
2019-06-28T13:47:40.798Z,30.36
2019-06-28T13:50:10.905Z,30.52
2019-06-28T13:52:40.376Z,31.48
2019-06-28T13:55:10.269Z,31.57
2019-06-28T13:57:40.292Z,32.51
2019-06-28T14:00:10.650Z,33.76
2019-06-28T14:02:40.209Z,30.67
2019-06-28T14:05:10.397Z,30.67
2019-06-28T14:07:41.139Z,34.55
2019-06-28T14:10:11.335Z,30.16
2019-06-28T14:12:40.810Z,30.28
2019-06-28T14:15:12.314Z,35.31
2019-06-28T14:17:41.803Z,33.22
2019-06-28T14:20:13.010Z,30.47
2019-06-28T14:22:42.583Z,29.94
2019-06-28T14:25:12.589Z,28.66
2019-06-28T14:27:42.052Z,29.98
2019-06-28T14:30:12.054Z,30.16
2019-06-28T14:32:41.538Z,29.81
2019-06-28T14:35:11.257Z,29.41
2019-06-28T14:37:41.611Z,31.67
2019-06-28T14:40:11.631Z,33.20
2019-06-28T14:42:41.117Z,29.54
2019-06-28T14:45:10.840Z,32.63
2019-06-28T14:47:40.324Z,33.21
2019-06-28T14:50:10.638Z,33.81
2019-06-28T14:52:40.133Z,34.44
2019-06-28T14:55:09.914Z,30.61
2019-06-28T14:57:39.406Z,33.11
2019-06-28T15:00:19.640Z,34.17
2019-06-28T15:03:02.780Z,32.78
2019-06-28T15:05:20.317Z,30.11
2019-06-28T15:07:50.730Z,29.48
2019-06-28T15:10:20.604Z,33.61
2019-06-28T15:12:50.097Z,33.76
2019-06-28T15:15:19.808Z,34.70
2019-06-28T15:17:49.301Z,33.31
2019-06-28T15:20:19.139Z,33.45
2019-06-28T15:22:48.617Z,32.84
2019-06-28T15:25:18.111Z,33.96
2019-06-28T15:27:47.671Z,34.13
2019-06-28T15:30:18.760Z,37.13
2019-06-28T15:32:51.790Z,37.88
2019-06-28T15:35:19.520Z,32.88
2019-06-28T15:37:49.019Z,33.34
2019-06-28T15:40:18.813Z,33.97
2019-06-28T15:42:48.288Z,34.18
2019-06-28T15:45:17.856Z,32.88
2019-06-28T15:47:47.365Z,34.10
2019-06-28T15:50:17.005Z,34.54
2019-06-28T15:52:46.506Z,34.98
2019-06-28T15:55:15.986Z,35.36
2019-06-28T15:57:45.493Z,37.22
2019-06-28T16:00:15.308Z,36.27
2019-06-28T16:02:44.803Z,36.61
2019-06-28T16:05:14.800Z,35.97
2019-06-28T16:07:44.590Z,36.54
2019-06-28T16:10:15.069Z,34.57
2019-06-28T16:12:44.577Z,33.80
2019-06-28T16:15:14.373Z,35.35
2019-06-28T16:17:45.003Z,35.31
2019-06-28T16:20:14.646Z,35.26
2019-06-28T16:22:44.146Z,36.87
2019-06-28T16:25:13.885Z,36.44
2019-06-28T16:27:43.428Z,33.24
2019-06-28T16:30:13.443Z,36.24
2019-06-28T16:32:42.941Z,36.94
2019-06-28T16:35:13.036Z,37.18
2019-06-28T16:37:42.519Z,34.93
2019-06-28T16:40:12.914Z,35.70
2019-06-28T16:42:42.423Z,35.97
2019-06-28T16:45:12.133Z,37.00
2019-06-28T16:47:41.679Z,37.06
2019-06-28T16:50:11.522Z,37.59
2019-06-28T16:52:41.001Z,35.75
2019-06-28T16:55:10.606Z,37.26
2019-06-28T16:57:40.099Z,35.85
2019-06-28T17:00:10.380Z,37.00
2019-06-28T17:02:39.865Z,39.08
2019-06-28T17:05:10.149Z,39.95
2019-06-28T17:07:39.647Z,40.45
2019-06-28T17:10:10.179Z,39.85
2019-06-28T17:12:39.653Z,41.00
2019-06-28T17:15:12.355Z,42.02
2019-06-28T17:17:41.096Z,40.93
2019-06-28T17:20:19.185Z,42.69
2019-06-28T17:22:42.923Z,40.38
2019-06-28T17:25:12.541Z,43.93
2019-06-28T17:27:42.026Z,44.20
2019-06-28T17:30:15.300Z,46.07
2019-06-28T17:32:42.878Z,45.95
2019-06-28T17:35:12.596Z,45.25
2019-06-28T17:37:42.104Z,46.54
2019-06-28T17:40:12.184Z,46.81
2019-06-28T17:42:41.847Z,46.13
2019-06-28T17:45:11.655Z,47.29
2019-06-28T17:47:41.225Z,48.45
2019-06-28T17:50:12.716Z,49.44
2019-06-28T17:52:42.206Z,52.66
2019-06-28T17:55:11.923Z,52.24
2019-06-28T17:57:41.417Z,50.46
2019-06-28T18:00:12.070Z,49.32
2019-06-28T18:02:41.572Z,48.97
2019-06-28T18:05:11.495Z,46.20
2019-06-28T18:07:41.239Z,56.69
2019-06-28T18:10:11.302Z,47.54
2019-06-28T18:12:40.810Z,49.11
2019-06-28T18:15:10.538Z,50.53
2019-06-28T18:17:40.038Z,55.32
2019-06-28T18:20:09.765Z,54.79
2019-06-28T18:22:42.806Z,54.12
2019-06-28T18:25:10.611Z,52.70
2019-06-28T18:27:40.105Z,54.94
2019-06-28T18:30:10.280Z,56.79
2019-06-28T18:32:39.765Z,62.69
2019-06-28T18:35:09.483Z,58.84
2019-06-28T18:37:38.976Z,60.32
2019-06-28T18:40:09.862Z,64.86
2019-06-28T18:42:39.356Z,66.58
2019-06-28T18:45:09.047Z,66.92
2019-06-28T18:47:38.534Z,65.78
2019-06-28T18:50:08.650Z,75.76
2019-06-28T18:52:38.390Z,73.81
2019-06-28T18:55:09.739Z,72.34
2019-06-28T18:57:39.259Z,84.27
2019-06-28T19:00:09.477Z,84.40
2019-06-28T19:02:43.302Z,93.27
2019-06-28T19:05:10.431Z,97.00
2019-06-28T19:07:39.933Z,100.00
2019-06-28T19:10:10.966Z,100.00
2019-06-28T19:12:40.450Z,100.00
2019-06-28T19:15:11.118Z,100.00
2019-06-28T19:17:40.606Z,100.00
2019-06-28T19:20:10.713Z,100.00
2019-06-28T19:22:40.277Z,100.00
2019-06-28T19:25:09.840Z,100.00
2019-06-28T19:27:39.326Z,100.00
2019-06-28T19:30:11.007Z,100.00
2019-06-28T19:32:41.113Z,100.00
2019-06-28T19:35:10.857Z,100.00
2019-06-28T19:37:40.339Z,100.00
2019-06-28T19:40:10.331Z,100.00
2019-06-28T19:42:39.855Z,100.00
2019-06-28T19:45:09.657Z,100.00
2019-06-28T19:47:39.154Z,100.00
2019-06-28T19:50:09.142Z,100.00
2019-06-28T19:52:38.632Z,100.00
2019-06-28T19:55:09.140Z,100.00
2019-06-28T19:57:38.669Z,100.00
2019-06-28T20:00:09.566Z,100.00
2019-06-28T20:02:39.063Z,100.00
2019-06-28T20:05:08.804Z,100.00
2019-06-28T20:07:38.317Z,100.00
2019-06-28T20:10:09.308Z,100.00
2019-06-28T20:12:38.819Z,100.00
2019-06-28T20:15:08.685Z,100.00
2019-06-28T20:17:38.236Z,100.00
2019-06-28T20:20:08.171Z,100.00
2019-06-28T20:22:37.792Z,100.00
2019-06-28T20:25:07.523Z,100.00
2019-06-28T20:27:37.076Z,100.00
2019-06-28T20:30:08.038Z,100.00
2019-06-28T20:32:37.520Z,100.00
2019-06-28T20:35:07.613Z,100.00
2019-06-28T20:37:37.099Z,100.00
2019-06-28T20:40:07.119Z,100.00
2019-06-28T20:42:36.625Z,100.00
2019-06-28T20:45:10.970Z,100.00
2019-06-28T20:47:39.080Z,100.00
2019-06-28T20:50:08.836Z,100.00
2019-06-28T20:52:38.316Z,100.00
2019-06-28T20:55:07.949Z,100.00
2019-06-28T20:57:37.451Z,100.00
2019-06-28T21:00:08.333Z,100.00
2019-06-28T21:02:37.996Z,100.00
2019-06-28T21:05:09.362Z,100.00
2019-06-28T21:07:38.848Z,100.00
2019-06-28T21:10:08.649Z,100.00
2019-06-28T21:12:38.261Z,100.00
2019-06-28T21:15:09.099Z,100.00
2019-06-28T21:17:38.858Z,100.00
2019-06-28T21:20:10.939Z,100.00
2019-06-28T21:22:40.443Z,100.00
2019-06-28T21:25:10.179Z,100.00
2019-06-28T21:27:39.656Z,100.00
2019-06-28T21:30:09.617Z,100.00
2019-06-28T21:32:39.089Z,100.00
2019-06-28T21:35:09.003Z,100.00
2019-06-28T21:37:38.501Z,100.00
2019-06-28T21:40:08.806Z,100.00
2019-06-28T21:42:38.352Z,100.00
2019-06-28T21:45:08.485Z,100.00
2019-06-28T21:47:38.006Z,100.00
2019-06-28T21:50:07.722Z,100.00
2019-06-28T21:52:47.763Z,100.00
2019-06-28T21:55:08.738Z,100.00
2019-06-28T21:57:38.216Z,100.00
2019-06-28T22:00:08.783Z,100.00
2019-06-28T22:02:38.285Z,100.00
2019-06-28T22:05:08.105Z,100.00
2019-06-28T22:07:37.587Z,100.00
2019-06-28T22:10:07.222Z,100.00
2019-06-28T22:12:36.708Z,100.00
2019-06-28T22:15:06.494Z,100.00
2019-06-28T22:17:36.452Z,100.00
2019-06-28T22:20:06.477Z,100.00
2019-06-28T22:22:35.957Z,100.00
2019-06-28T22:25:06.958Z,100.00
2019-06-28T22:27:36.460Z,100.00
2019-06-28T22:30:10.415Z,100.00
2019-06-28T22:32:39.903Z,100.00
2019-06-28T22:35:09.541Z,100.00
2019-06-28T22:37:39.009Z,100.00
2019-06-28T22:40:09.038Z,100.00
2019-06-28T22:42:38.519Z,100.00
2019-06-28T22:45:12.050Z,100.00
2019-06-28T22:47:41.522Z,100.00
2019-06-28T22:50:12.823Z,100.00
2019-06-28T22:52:42.386Z,100.00
2019-06-28T22:55:12.213Z,100.00
2019-06-28T22:57:41.710Z,100.00
2019-06-28T23:00:11.526Z,100.00
2019-06-28T23:02:41.027Z,100.00
2019-06-28T23:05:10.747Z,100.00
2019-06-28T23:07:40.230Z,100.00
2019-06-28T23:10:09.979Z,100.00
2019-06-28T23:12:39.442Z,100.00
2019-06-28T23:15:10.473Z,100.00
2019-06-28T23:17:39.949Z,100.00
2019-06-28T23:20:09.678Z,100.00
2019-06-28T23:22:39.174Z,100.00
2019-06-28T23:25:09.096Z,100.00
2019-06-28T23:27:38.592Z,100.00
2019-06-28T23:30:09.089Z,100.00
2019-06-28T23:32:38.787Z,100.00
2019-06-28T23:35:09.862Z,100.00
2019-06-28T23:37:39.366Z,100.00
2019-06-28T23:40:09.727Z,100.00
2019-06-28T23:42:39.193Z,100.00
2019-06-28T23:45:09.803Z,100.00
2019-06-28T23:47:39.282Z,100.00
2019-06-28T23:50:09.183Z,100.00
2019-06-28T23:52:38.740Z,100.00
2019-06-28T23:55:09.322Z,100.00
2019-06-28T23:57:38.883Z,100.00
